createdAt,value
2024-02-10T00:05:00.004Z,14.10
2024-02-10T00:20:02.735Z,16.00
2024-02-10T00:35:06.930Z,14.00
2024-02-10T00:50:09.851Z,15.10
2024-02-10T01:05:14.976Z,15.10
2024-02-10T01:20:18.146Z,15.40
2024-02-10T01:35:21.232Z,14.10
2024-02-10T01:50:23.926Z,15.50
2024-02-10T02:05:28.262Z,15.10
2024-02-10T02:20:32.899Z,16.10
2024-02-10T02:35:39.083Z,13.00
2024-02-10T02:50:45.006Z,15.60
2024-02-10T03:05:47.510Z,14.50
2024-02-10T03:20:50.297Z,14.00
2024-02-10T03:50:57.182Z,15.00
2024-02-10T04:05:59.652Z,13.20
2024-02-10T04:21:04.645Z,15.90
2024-02-10T04:36:07.960Z,15.40
2024-02-10T04:51:10.521Z,15.50
2024-02-10T05:06:14.085Z,14.80
2024-02-10T05:21:21.006Z,12.70
2024-02-10T05:36:23.513Z,14.90
2024-02-10T05:51:26.193Z,13.70
2024-02-10T06:06:28.730Z,15.20
2024-02-10T08:22:41.977Z,14.10
2024-02-10T08:37:44.571Z,14.80
2024-02-10T09:00:28.680Z,14.30
2024-02-10T09:15:31.165Z,16.30
2024-02-10T09:30:36.208Z,15.40
2024-02-10T09:45:42.638Z,16.60
2024-02-10T10:00:45.455Z,16.10
2024-02-10T10:15:48.064Z,16.40
2024-02-10T10:30:53.640Z,13.80
2024-02-10T10:45:58.001Z,13.40
2024-02-10T11:01:03.952Z,16.60
2024-02-10T11:16:13.524Z,16.70
2024-02-10T11:31:18.214Z,15.90
2024-02-10T11:46:21.160Z,11.60
2024-02-10T12:01:25.007Z,11.00
2024-02-10T12:16:34.493Z,13.00
2024-02-10T12:31:41.908Z,15.40
2024-02-10T12:46:46.623Z,15.40
2024-02-10T13:01:49.647Z,14.70
2024-02-10T13:16:52.340Z,14.60
2024-02-10T13:31:57.051Z,14.00
2024-02-10T13:47:19.728Z,16.40
2024-02-10T14:02:41.038Z,18.20
2024-02-10T14:17:50.239Z,23.80
2024-02-10T14:32:57.031Z,20.30
2024-02-10T14:48:06.405Z,19.00
2024-02-10T15:03:15.113Z,21.30
2024-02-10T15:18:19.364Z,19.20
2024-02-10T15:33:22.669Z,18.20
2024-02-10T15:48:29.804Z,22.00
2024-02-10T16:03:34.631Z,22.30
2024-02-10T16:18:40.505Z,20.10
2024-02-10T16:33:43.130Z,18.70
2024-02-10T16:48:49.654Z,18.10
2024-02-10T17:03:54.246Z,17.90
2024-02-10T17:19:00.203Z,19.90
2024-02-10T17:34:03.547Z,20.00
2024-02-10T17:49:10.354Z,20.80
2024-02-10T18:04:15.203Z,22.40
2024-02-10T18:19:17.731Z,22.10
2024-02-10T18:34:21.253Z,22.40
2024-02-10T18:49:32.280Z,23.20
2024-02-10T19:04:36.671Z,20.40
2024-02-10T19:19:40.340Z,22.80
2024-02-10T19:34:45.625Z,25.80
2024-02-10T19:49:49.425Z,22.10
2024-02-10T20:04:52.423Z,20.70
2024-02-10T20:20:06.254Z,20.20
2024-02-10T20:50:14.283Z,20.30
2024-02-10T21:05:18.137Z,22.00
2024-02-10T21:20:20.852Z,20.70
2024-02-10T21:50:28.294Z,19.90
2024-02-10T22:05:31.661Z,18.00
2024-02-10T22:20:34.165Z,19.00
2024-02-10T22:35:37.831Z,18.30
2024-02-10T22:50:44.001Z,20.10
2024-02-10T23:05:46.716Z,16.20
2024-02-10T23:20:51.782Z,17.90
2024-02-10T23:35:56.591Z,14.70
2024-02-10T23:51:01.093Z,15.20
